Airfield :
LOGIN :

Register | Disclaimer

   EN    FR    IT 

 










Legend :    VFR   Marginal VFR   IFR   Intensive IFR   Very Intensive IFR
Visi :
Ceiling :
>= 8 km
>= 3000ft
5 to 8 km
1000 to 3000 ft
1500m to 5 km
500 to 1000 ft
800 to 1500m
200 to 500 ft
< 800m
< 200 ft
Symbols :   Thunderstorms  Fog  Heavy snow  Heavy precipitations  Wind > 20 kt
SIGMETs :     Misc.  Thunderstorms  Icing  Turbulence  Mountain Waves  Volcanic Ashes






- Airport Elevation : 24 ft
- IATA code : SGD


EKSB - Sonderborg

CURRENT METAR :
  • 280450Z AUTO 19006KT 150V220 9999 FEW014/// SCT048/// OVC074/// 03/00 Q1017

EXPIRED METARs :
  • 280420Z AUTO 19007KT 9999 SCT026/// BKN088/// 03/00 Q1017
  • 280350Z AUTO 20007KT 160V220 9999 SCT028/// BKN089/// 03/00 Q1017
  • 280320Z AUTO 19006KT 150V220 9999 OVC090/// 03/00 Q1017
  • 280250Z AUTO 19006KT 150V220 9999 FEW018/// SCT029/// OVC080/// 03/00 Q1018
  • 280220Z AUTO 19006KT 160V230 9999 OVC016/// 03/00 Q1018
  • 280150Z AUTO 23005KT 200V260 9999 OVC016/// 03/M00 Q1018
  • 280120Z AUTO 22005KT 170V260 9999 OVC015/// 03/M00 Q1018
  • 280050Z AUTO 21006KT 180V240 9999 OVC016/// 03/M00 Q1018
  • 280020Z AUTO 22006KT 180V260 9999 OVC015/// 03/00 Q1018

Expired Forecast.



MET'MAP, your aeronautical weather chart ! - Copyright ORBIFLY December 2007 - Disclaimer

ORBIFLY MET'MAP TEAM :

Programming & Development : Alexandra Zaïnal
Original concept : Baudouin d'Aumeries
Technical & hardware support : Manuel Goepfert
Assistance : Marc-Olivier Méhu




SOURCES & CREDITS :

   NOAA